メインページ
METAR-TAF:

METAR-TAF

空港 :

ベレン, パラー州, ブラジル

緯度: 01-23S, 経度: 048-29W, 海抜: 16m

現時点の気象観測

当レポートは1時間17分前の05:00(UTC)に作成
の風 3kt
気温 24°C
湿度 94%
気圧 1011 hPa
視程10km以上
高度3500ftの雲はほとんどない
高度10000ftの千切れ雲あり

METAR: SBBE 280500Z 09003KT 9999 FEW035 BKN100 24/23 Q1011

時間: 03:17 (06:17 UTC)

予報

当レポートは2時間17分前の04:00(UTC)に作成
予報は28日の 06時(UTC)から 29日の 06時(UTC)まで有効
の風 5kt
視程10km以上
高度1500ftの雲はほとんどない
28日の 13時(UTC)から 28日の 15時(UTC)まで徐々に
北東の風 10kt
高度2500ftの千切れ雲あり
28日の 16時(UTC)から 28日の 17時(UTC)まで徐々に
の風 8kt
視程: 4000m
高度3000ftの千切れ雲あり
高度3500ftの雲はほとんどない, 塔状積雲.
, にわか雨
28日の 22時(UTC)から 28日の 24時(UTC)まで徐々に
の風 5kt
高度3000ftの雲は散在している

TAF: SBBE 280400Z 2806/2906 08005KT 9999 FEW015 TN24/2806Z TX33/2816Z BECMG 2813/2815 05010KT BKN025 BECMG 2816/2817 36008KT BKN030 FEW035TCU PR OB30 2817/2821 4000 SHRA BECMG 2822/2824 08005KT SCT030 RMK PEN

4,000以上の空港の気象観測と天気予報(METAR報とTAF報)

利用可能な観測所は地図上に黄色い丸と赤い丸で示す。

丸の上にカーソルを重ねると観測所名を参照できる。

次にクリックすると気象観測と天気予報を参照できる。

マップの切り替え:黒色「×」印の緑ボタンをクリックして拡大、「-」印の緑ボタンをクリックして縮小、緑色の三角印をクリックして隣りの地図に切り替え


METAR-TAF: